Terminal Aerodrome Forecast
Issued by NWS Charleston, WV

Current Version | Previous Version | Graphics & Text | Print | Product List | Glossary On
Versions: 1 2 3 4 5 6 7 8 9 10 11 12 13 14 15 16 17 18 19 20 21 22 23 24 25
536
FTUS41 KRLX 250550
TAFBKW
TAF
KBKW 250550Z 2506/2606 11010KT P6SM OVC010
     FM250900 10008G14KT P6SM OVC008
     FM251300 07006KT P6SM OVC015
     FM251400 06005KT P6SM BKN025
     FM251700 05004KT P6SM OVC035
     FM252300 02004KT P6SM BKN035
     FM260400 VRB03KT 5SM BR SCT025=

USA.gov is the U.S. government's official web portal to all federal, state and local government web resources and services.